Casterton, Victoria

8:44 AM AEDT on November 29, 2014 (GMT +1100)
Mount Gambier | Change Station
CLOSE
Current Station
Airport
Location: Mount Gambier Airport,
Elevation: 210 ft
Nearby Weather Stations

Elev 210 ft 37.75 °S, 140.79 °E | Updated 44 minutes ago

Clear
Clear
55 °F
Feels Like 55 °F
N
9
Wind Variable Wind from ESE

Today
High -- | Low -- °F
--% Chance of Precip.
Yesterday
High -- | Low -- °F
Precip. -- in
6:07 AM 8:37 PM
Waxing Crescent, 44% visible
Pressure 29.98 in
Visibility 6.2 miles
Clouds
Dew Point 46 °F
Humidity 72%
Rainfall 0.00 in
Snow Depth Not available.
UV Not available.
Pollen Not available.
Air Quality Not available.
Flu Activity Not available.
METAR YMTG 282100Z AUTO 11008KT 9999 // NCD 13/08 Q1015

More Conditions Fewer Conditions

Pressure 29.98 in
Visibility 6.2 miles
Clouds
Dew Point 46 °F
Humidity 72%
Rainfall 0.00 in
Snow Depth Not available.
UV Not available.
Pollen Not available.
Air Quality Not available.
Flu Activity Not available.
METAR YMTG 282100Z AUTO 11008KT 9999 // NCD 13/08 Q1015

More Conditions Fewer Conditions

10-Day Weather Forecast

Almanac

Astronomy

Nov. 29, 2014 Rise Set
Actual Time
Civil Twilight
Nautical Twilight
Astronomical Twilight
Moon
Length of Visible Light
Length of Day
Tomorrow will be .
, % of the Moon is Illuminated

Today's Extremes

Country Highs Country Lows

Community

WunderPhotos

Upload Photos

1,774,310 photos uploaded!

WunderBlogs® & News

Nearby

Air Quality

  Air Quality AQ Index Pollutant
Not available.

Snow Depth

Station Depth Elevation

Earthquake Activity

City Distance Mag. Time & Date
Minimum magnitude displayed is 2.5.

Coastal Water Temperatures

Place Temperature

Nearby Weather Stations